sensor_id;sensor_type;location;lat;lon;timestamp;P1;durP1;ratioP1;P2;durP2;ratioP2
56419;SDS011;42323;52.170;7.538;2022-12-29T00:00:18;8.73;;;5.82;;
56419;SDS011;42323;52.170;7.538;2022-12-29T00:02:45;8.13;;;5.55;;
56419;SDS011;42323;52.170;7.538;2022-12-29T00:05:13;8.32;;;5.60;;
56419;SDS011;42323;52.170;7.538;2022-12-29T00:07:40;8.05;;;5.72;;
56419;SDS011;42323;52.170;7.538;2022-12-29T00:10:07;8.88;;;5.07;;
56419;SDS011;42323;52.170;7.538;2022-12-29T00:12:34;6.95;;;5.15;;
56419;SDS011;42323;52.170;7.538;2022-12-29T00:15:19;7.20;;;4.55;;
56419;SDS011;42323;52.170;7.538;2022-12-29T00:18:05;5.28;;;4.60;;
56419;SDS011;42323;52.170;7.538;2022-12-29T00:20:36;5.70;;;4.25;;
56419;SDS011;42323;52.170;7.538;2022-12-29T00:23:22;6.10;;;4.15;;
56419;SDS011;42323;52.170;7.538;2022-12-29T00:26:12;6.00;;;4.00;;
56419;SDS011;42323;52.170;7.538;2022-12-29T00:29:01;5.40;;;4.03;;
56419;SDS011;42323;52.170;7.538;2022-12-29T00:31:47;5.53;;;4.33;;
56419;SDS011;42323;52.170;7.538;2022-12-29T00:34:32;4.90;;;3.97;;
56419;SDS011;42323;52.170;7.538;2022-12-29T00:37:18;5.45;;;4.15;;
56419;SDS011;42323;52.170;7.538;2022-12-29T00:40:05;5.78;;;4.03;;
56419;SDS011;42323;52.170;7.538;2022-12-29T00:42:52;5.10;;;3.87;;
56419;SDS011;42323;52.170;7.538;2022-12-29T00:45:39;6.60;;;4.45;;
56419;SDS011;42323;52.170;7.538;2022-12-29T00:48:07;5.22;;;4.03;;
56419;SDS011;42323;52.170;7.538;2022-12-29T00:50:34;5.30;;;4.47;;
56419;SDS011;42323;52.170;7.538;2022-12-29T00:53:01;4.35;;;3.92;;
56419;SDS011;42323;52.170;7.538;2022-12-29T00:55:27;5.68;;;4.05;;
56419;SDS011;42323;52.170;7.538;2022-12-29T00:57:54;5.60;;;4.18;;
56419;SDS011;42323;52.170;7.538;2022-12-29T01:00:21;3.90;;;3.42;;
56419;SDS011;42323;52.170;7.538;2022-12-29T01:02:48;4.95;;;3.78;;
56419;SDS011;42323;52.170;7.538;2022-12-29T01:05:15;4.40;;;3.40;;
56419;SDS011;42323;52.170;7.538;2022-12-29T01:07:43;4.50;;;3.10;;
56419;SDS011;42323;52.170;7.538;2022-12-29T01:10:10;4.97;;;3.13;;
56419;SDS011;42323;52.170;7.538;2022-12-29T01:12:36;3.80;;;2.90;;
56419;SDS011;42323;52.170;7.538;2022-12-29T01:15:12;3.30;;;2.60;;
56419;SDS011;42323;52.170;7.538;2022-12-29T01:17:40;3.28;;;2.60;;
56419;SDS011;42323;52.170;7.538;2022-12-29T01:20:07;4.43;;;2.58;;
56419;SDS011;42323;52.170;7.538;2022-12-29T01:22:34;4.25;;;2.90;;
56419;SDS011;42323;52.170;7.538;2022-12-29T01:25:01;3.88;;;2.70;;
56419;SDS011;42323;52.170;7.538;2022-12-29T01:27:28;3.33;;;2.80;;
56419;SDS011;42323;52.170;7.538;2022-12-29T01:29:55;5.72;;;3.40;;
56419;SDS011;42323;52.170;7.538;2022-12-29T01:32:22;3.63;;;2.55;;
56419;SDS011;42323;52.170;7.538;2022-12-29T01:34:49;3.13;;;2.53;;
56419;SDS011;42323;52.170;7.538;2022-12-29T01:37:15;3.53;;;2.70;;
56419;SDS011;42323;52.170;7.538;2022-12-29T01:39:43;3.30;;;2.97;;
56419;SDS011;42323;52.170;7.538;2022-12-29T01:42:27;4.63;;;3.47;;
56419;SDS011;42323;52.170;7.538;2022-12-29T01:44:55;4.25;;;3.30;;
56419;SDS011;42323;52.170;7.538;2022-12-29T01:50:01;3.78;;;3.30;;
56419;SDS011;42323;52.170;7.538;2022-12-29T01:52:33;4.07;;;3.15;;
56419;SDS011;42323;52.170;7.538;2022-12-29T01:55:03;5.35;;;3.75;;
56419;SDS011;42323;52.170;7.538;2022-12-29T01:57:32;5.15;;;3.60;;
56419;SDS011;42323;52.170;7.538;2022-12-29T02:00:04;5.25;;;4.07;;
56419;SDS011;42323;52.170;7.538;2022-12-29T02:02:34;5.45;;;3.83;;
56419;SDS011;42323;52.170;7.538;2022-12-29T02:05:07;6.07;;;4.32;;
56419;SDS011;42323;52.170;7.538;2022-12-29T02:08:05;5.45;;;3.78;;
56419;SDS011;42323;52.170;7.538;2022-12-29T02:10:32;6.55;;;4.15;;
56419;SDS011;42323;52.170;7.538;2022-12-29T02:13:01;4.28;;;3.78;;
56419;SDS011;42323;52.170;7.538;2022-12-29T02:15:41;5.05;;;4.03;;
56419;SDS011;42323;52.170;7.538;2022-12-29T02:29:15;4.75;;;3.42;;
56419;SDS011;42323;52.170;7.538;2022-12-29T02:32:01;5.47;;;4.40;;
56419;SDS011;42323;52.170;7.538;2022-12-29T02:37:11;5.20;;;3.90;;
56419;SDS011;42323;52.170;7.538;2022-12-29T02:51:16;3.50;;;2.95;;
56419;SDS011;42323;52.170;7.538;2022-12-29T02:53:47;3.33;;;2.78;;
56419;SDS011;42323;52.170;7.538;2022-12-29T02:56:33;4.93;;;2.63;;
56419;SDS011;42323;52.170;7.538;2022-12-29T02:59:00;3.47;;;2.00;;
56419;SDS011;42323;52.170;7.538;2022-12-29T03:07:48;3.88;;;1.85;;
56419;SDS011;42323;52.170;7.538;2022-12-29T03:10:31;2.90;;;1.95;;
56419;SDS011;42323;52.170;7.538;2022-12-29T03:13:22;2.58;;;1.77;;
56419;SDS011;42323;52.170;7.538;2022-12-29T03:16:21;3.15;;;1.50;;
56419;SDS011;42323;52.170;7.538;2022-12-29T03:21:44;1.83;;;1.48;;
56419;SDS011;42323;52.170;7.538;2022-12-29T03:24:35;1.83;;;1.52;;
56419;SDS011;42323;52.170;7.538;2022-12-29T03:27:06;2.78;;;1.60;;
56419;SDS011;42323;52.170;7.538;2022-12-29T03:29:36;1.60;;;1.27;;
56419;SDS011;42323;52.170;7.538;2022-12-29T03:32:08;1.98;;;1.30;;
56419;SDS011;42323;52.170;7.538;2022-12-29T03:34:36;2.63;;;1.45;;
56419;SDS011;42323;52.170;7.538;2022-12-29T03:37:06;1.77;;;1.15;;
56419;SDS011;42323;52.170;7.538;2022-12-29T03:39:39;2.20;;;1.30;;
56419;SDS011;42323;52.170;7.538;2022-12-29T03:42:09;1.88;;;1.10;;
56419;SDS011;42323;52.170;7.538;2022-12-29T03:44:41;4.20;;;1.52;;
56419;SDS011;42323;52.170;7.538;2022-12-29T03:47:10;1.20;;;1.10;;
56419;SDS011;42323;52.170;7.538;2022-12-29T03:49:38;1.40;;;1.10;;
56419;SDS011;42323;52.170;7.538;2022-12-29T03:52:05;1.17;;;1.00;;
56419;SDS011;42323;52.170;7.538;2022-12-29T03:54:32;2.28;;;1.23;;
56419;SDS011;42323;52.170;7.538;2022-12-29T03:56:59;1.40;;;1.30;;
56419;SDS011;42323;52.170;7.538;2022-12-29T03:59:26;1.85;;;1.58;;
56419;SDS011;42323;52.170;7.538;2022-12-29T04:01:53;3.72;;;1.30;;
56419;SDS011;42323;52.170;7.538;2022-12-29T04:04:20;2.35;;;1.25;;
56419;SDS011;42323;52.170;7.538;2022-12-29T04:06:46;3.85;;;1.33;;
56419;SDS011;42323;52.170;7.538;2022-12-29T04:09:13;1.10;;;1.00;;
56419;SDS011;42323;52.170;7.538;2022-12-29T04:11:40;1.92;;;1.20;;
56419;SDS011;42323;52.170;7.538;2022-12-29T04:14:07;1.05;;;0.95;;
56419;SDS011;42323;52.170;7.538;2022-12-29T04:16:33;1.63;;;1.20;;
56419;SDS011;42323;52.170;7.538;2022-12-29T04:19:02;3.85;;;1.40;;
56419;SDS011;42323;52.170;7.538;2022-12-29T04:21:29;1.40;;;1.00;;
56419;SDS011;42323;52.170;7.538;2022-12-29T04:23:56;1.70;;;1.15;;
56419;SDS011;42323;52.170;7.538;2022-12-29T04:26:23;2.75;;;1.10;;
56419;SDS011;42323;52.170;7.538;2022-12-29T04:28:49;1.40;;;1.30;;
56419;SDS011;42323;52.170;7.538;2022-12-29T04:31:16;1.98;;;1.02;;
56419;SDS011;42323;52.170;7.538;2022-12-29T04:33:43;1.73;;;1.10;;
56419;SDS011;42323;52.170;7.538;2022-12-29T04:36:10;2.58;;;1.10;;
56419;SDS011;42323;52.170;7.538;2022-12-29T04:38:37;1.15;;;0.90;;
56419;SDS011;42323;52.170;7.538;2022-12-29T04:41:04;1.42;;;1.08;;
56419;SDS011;42323;52.170;7.538;2022-12-29T04:43:30;1.45;;;1.23;;
56419;SDS011;42323;52.170;7.538;2022-12-29T04:45:57;1.20;;;1.10;;
56419;SDS011;42323;52.170;7.538;2022-12-29T04:48:24;1.65;;;1.20;;
56419;SDS011;42323;52.170;7.538;2022-12-29T04:50:51;1.95;;;1.08;;
56419;SDS011;42323;52.170;7.538;2022-12-29T04:53:17;1.70;;;1.13;;
56419;SDS011;42323;52.170;7.538;2022-12-29T04:55:47;1.35;;;1.17;;
56419;SDS011;42323;52.170;7.538;2022-12-29T04:58:16;3.00;;;1.35;;
56419;SDS011;42323;52.170;7.538;2022-12-29T05:00:48;1.42;;;1.30;;
56419;SDS011;42323;52.170;7.538;2022-12-29T05:03:19;5.38;;;1.80;;
56419;SDS011;42323;52.170;7.538;2022-12-29T05:05:52;2.97;;;1.20;;
56419;SDS011;42323;52.170;7.538;2022-12-29T05:08:23;2.15;;;1.40;;
56419;SDS011;42323;52.170;7.538;2022-12-29T05:10:53;2.17;;;0.95;;
56419;SDS011;42323;52.170;7.538;2022-12-29T05:13:20;1.52;;;1.13;;
56419;SDS011;42323;52.170;7.538;2022-12-29T05:15:49;2.05;;;0.90;;
56419;SDS011;42323;52.170;7.538;2022-12-29T05:18:17;1.85;;;0.90;;
56419;SDS011;42323;52.170;7.538;2022-12-29T05:20:44;0.77;;;0.70;;
56419;SDS011;42323;52.170;7.538;2022-12-29T05:23:12;1.15;;;1.00;;
56419;SDS011;42323;52.170;7.538;2022-12-29T05:25:40;2.00;;;1.20;;
56419;SDS011;42323;52.170;7.538;2022-12-29T05:28:06;2.38;;;0.90;;
56419;SDS011;42323;52.170;7.538;2022-12-29T05:30:33;1.13;;;1.00;;
56419;SDS011;42323;52.170;7.538;2022-12-29T05:33:00;1.15;;;0.80;;
56419;SDS011;42323;52.170;7.538;2022-12-29T05:35:27;2.08;;;0.90;;
56419;SDS011;42323;52.170;7.538;2022-12-29T05:37:53;1.10;;;0.80;;
56419;SDS011;42323;52.170;7.538;2022-12-29T05:40:20;0.75;;;0.73;;
56419;SDS011;42323;52.170;7.538;2022-12-29T05:42:47;1.60;;;0.80;;
56419;SDS011;42323;52.170;7.538;2022-12-29T05:45:14;0.80;;;0.80;;
56419;SDS011;42323;52.170;7.538;2022-12-29T05:47:41;0.85;;;0.80;;
56419;SDS011;42323;52.170;7.538;2022-12-29T05:50:07;1.33;;;1.00;;
56419;SDS011;42323;52.170;7.538;2022-12-29T05:52:34;2.13;;;0.70;;
56419;SDS011;42323;52.170;7.538;2022-12-29T05:55:01;1.75;;;0.68;;
56419;SDS011;42323;52.170;7.538;2022-12-29T05:57:28;3.28;;;0.77;;
56419;SDS011;42323;52.170;7.538;2022-12-29T05:59:54;1.58;;;1.13;;
56419;SDS011;42323;52.170;7.538;2022-12-29T06:02:21;2.15;;;1.17;;
56419;SDS011;42323;52.170;7.538;2022-12-29T06:04:48;1.52;;;0.75;;
56419;SDS011;42323;52.170;7.538;2022-12-29T06:07:15;0.85;;;0.80;;
56419;SDS011;42323;52.170;7.538;2022-12-29T06:09:42;2.53;;;1.00;;
56419;SDS011;42323;52.170;7.538;2022-12-29T06:12:09;1.50;;;0.80;;
56419;SDS011;42323;52.170;7.538;2022-12-29T06:14:35;2.40;;;0.80;;
56419;SDS011;42323;52.170;7.538;2022-12-29T06:17:02;1.95;;;0.75;;
56419;SDS011;42323;52.170;7.538;2022-12-29T06:19:29;0.98;;;0.90;;
56419;SDS011;42323;52.170;7.538;2022-12-29T06:21:55;3.13;;;1.00;;
56419;SDS011;42323;52.170;7.538;2022-12-29T06:24:22;2.90;;;1.15;;
56419;SDS011;42323;52.170;7.538;2022-12-29T06:26:49;0.80;;;0.80;;
56419;SDS011;42323;52.170;7.538;2022-12-29T06:29:16;1.95;;;1.00;;
56419;SDS011;42323;52.170;7.538;2022-12-29T06:31:44;1.58;;;0.90;;
56419;SDS011;42323;52.170;7.538;2022-12-29T06:34:15;0.60;;;0.60;;
56419;SDS011;42323;52.170;7.538;2022-12-29T06:36:42;3.33;;;1.00;;
56419;SDS011;42323;52.170;7.538;2022-12-29T06:39:10;3.90;;;0.95;;
56419;SDS011;42323;52.170;7.538;2022-12-29T06:41:36;2.63;;;0.93;;
56419;SDS011;42323;52.170;7.538;2022-12-29T06:44:04;1.48;;;0.90;;
56419;SDS011;42323;52.170;7.538;2022-12-29T06:46:31;4.38;;;1.00;;
56419;SDS011;42323;52.170;7.538;2022-12-29T06:48:57;3.28;;;0.90;;
56419;SDS011;42323;52.170;7.538;2022-12-29T06:51:24;3.88;;;1.30;;
56419;SDS011;42323;52.170;7.538;2022-12-29T06:53:51;1.38;;;1.27;;
56419;SDS011;42323;52.170;7.538;2022-12-29T06:56:18;4.65;;;1.05;;
56419;SDS011;42323;52.170;7.538;2022-12-29T06:58:44;2.50;;;1.00;;
56419;SDS011;42323;52.170;7.538;2022-12-29T07:01:11;3.53;;;1.10;;
56419;SDS011;42323;52.170;7.538;2022-12-29T07:03:40;3.42;;;1.00;;
56419;SDS011;42323;52.170;7.538;2022-12-29T07:06:08;3.63;;;1.17;;
56419;SDS011;42323;52.170;7.538;2022-12-29T07:08:36;2.35;;;0.90;;
56419;SDS011;42323;52.170;7.538;2022-12-29T07:11:05;1.30;;;1.00;;
56419;SDS011;42323;52.170;7.538;2022-12-29T07:13:31;2.60;;;0.90;;
56419;SDS011;42323;52.170;7.538;2022-12-29T07:15:58;3.50;;;0.98;;
56419;SDS011;42323;52.170;7.538;2022-12-29T07:18:25;2.50;;;1.10;;
56419;SDS011;42323;52.170;7.538;2022-12-29T07:20:52;1.95;;;0.98;;
56419;SDS011;42323;52.170;7.538;2022-12-29T07:23:18;2.83;;;1.05;;
56419;SDS011;42323;52.170;7.538;2022-12-29T07:25:45;2.00;;;0.93;;
56419;SDS011;42323;52.170;7.538;2022-12-29T07:28:13;4.60;;;1.13;;
56419;SDS011;42323;52.170;7.538;2022-12-29T07:30:40;1.67;;;0.93;;
56419;SDS011;42323;52.170;7.538;2022-12-29T07:33:07;2.10;;;0.88;;
56419;SDS011;42323;52.170;7.538;2022-12-29T07:35:34;1.88;;;0.98;;
56419;SDS011;42323;52.170;7.538;2022-12-29T07:38:03;4.57;;;1.20;;
56419;SDS011;42323;52.170;7.538;2022-12-29T07:40:31;3.25;;;1.83;;
56419;SDS011;42323;52.170;7.538;2022-12-29T07:42:58;5.15;;;1.38;;
56419;SDS011;42323;52.170;7.538;2022-12-29T07:45:25;4.13;;;1.10;;
56419;SDS011;42323;52.170;7.538;2022-12-29T07:47:52;1.63;;;1.00;;
56419;SDS011;42323;52.170;7.538;2022-12-29T07:50:18;2.28;;;0.90;;
56419;SDS011;42323;52.170;7.538;2022-12-29T07:52:45;1.02;;;0.93;;
56419;SDS011;42323;52.170;7.538;2022-12-29T07:55:13;2.88;;;1.10;;
56419;SDS011;42323;52.170;7.538;2022-12-29T07:57:41;2.35;;;1.10;;
56419;SDS011;42323;52.170;7.538;2022-12-29T08:00:08;3.33;;;1.17;;
56419;SDS011;42323;52.170;7.538;2022-12-29T08:02:36;2.78;;;1.25;;
56419;SDS011;42323;52.170;7.538;2022-12-29T08:05:03;3.60;;;1.33;;
56419;SDS011;42323;52.170;7.538;2022-12-29T08:07:30;3.25;;;1.60;;
56419;SDS011;42323;52.170;7.538;2022-12-29T08:09:56;4.82;;;1.38;;
56419;SDS011;42323;52.170;7.538;2022-12-29T08:12:24;3.30;;;1.10;;
56419;SDS011;42323;52.170;7.538;2022-12-29T08:14:50;1.10;;;0.85;;
56419;SDS011;42323;52.170;7.538;2022-12-29T08:17:17;1.45;;;1.10;;
56419;SDS011;42323;52.170;7.538;2022-12-29T08:19:44;2.92;;;0.90;;
56419;SDS011;42323;52.170;7.538;2022-12-29T08:22:10;3.10;;;1.00;;
56419;SDS011;42323;52.170;7.538;2022-12-29T08:24:37;3.15;;;1.23;;
56419;SDS011;42323;52.170;7.538;2022-12-29T08:27:04;2.03;;;0.93;;
56419;SDS011;42323;52.170;7.538;2022-12-29T08:29:45;2.90;;;1.10;;
56419;SDS011;42323;52.170;7.538;2022-12-29T08:32:11;2.40;;;0.90;;
56419;SDS011;42323;52.170;7.538;2022-12-29T08:34:38;3.50;;;1.05;;
56419;SDS011;42323;52.170;7.538;2022-12-29T08:37:05;1.33;;;1.00;;
56419;SDS011;42323;52.170;7.538;2022-12-29T08:39:32;3.63;;;1.10;;
56419;SDS011;42323;52.170;7.538;2022-12-29T08:42:00;2.80;;;1.02;;
56419;SDS011;42323;52.170;7.538;2022-12-29T08:44:26;4.32;;;1.55;;
56419;SDS011;42323;52.170;7.538;2022-12-29T08:46:53;4.18;;;1.27;;
56419;SDS011;42323;52.170;7.538;2022-12-29T08:49:20;5.72;;;1.02;;
56419;SDS011;42323;52.170;7.538;2022-12-29T08:51:47;1.90;;;0.88;;
56419;SDS011;42323;52.170;7.538;2022-12-29T08:54:13;3.50;;;1.02;;
56419;SDS011;42323;52.170;7.538;2022-12-29T08:56:40;4.43;;;1.15;;
56419;SDS011;42323;52.170;7.538;2022-12-29T08:59:07;2.78;;;0.93;;
56419;SDS011;42323;52.170;7.538;2022-12-29T09:01:34;2.00;;;1.08;;
56419;SDS011;42323;52.170;7.538;2022-12-29T09:04:02;2.63;;;0.90;;
56419;SDS011;42323;52.170;7.538;2022-12-29T09:06:41;1.20;;;0.95;;
56419;SDS011;42323;52.170;7.538;2022-12-29T09:09:07;2.17;;;1.00;;
56419;SDS011;42323;52.170;7.538;2022-12-29T09:11:34;2.70;;;1.20;;
56419;SDS011;42323;52.170;7.538;2022-12-29T09:14:01;3.00;;;1.08;;
56419;SDS011;42323;52.170;7.538;2022-12-29T09:16:28;4.60;;;1.27;;
56419;SDS011;42323;52.170;7.538;2022-12-29T09:18:54;1.52;;;0.90;;
56419;SDS011;42323;52.170;7.538;2022-12-29T09:21:21;3.15;;;1.30;;
56419;SDS011;42323;52.170;7.538;2022-12-29T09:23:48;4.28;;;1.20;;
56419;SDS011;42323;52.170;7.538;2022-12-29T09:26:15;4.60;;;1.10;;
56419;SDS011;42323;52.170;7.538;2022-12-29T09:28:42;2.08;;;1.20;;
56419;SDS011;42323;52.170;7.538;2022-12-29T09:31:10;1.58;;;1.10;;
56419;SDS011;42323;52.170;7.538;2022-12-29T09:33:37;11.68;;;2.15;;
56419;SDS011;42323;52.170;7.538;2022-12-29T09:36:04;6.68;;;1.20;;
56419;SDS011;42323;52.170;7.538;2022-12-29T09:38:31;3.03;;;1.30;;
56419;SDS011;42323;52.170;7.538;2022-12-29T09:41:11;3.70;;;1.08;;
56419;SDS011;42323;52.170;7.538;2022-12-29T09:44:05;2.05;;;0.90;;
56419;SDS011;42323;52.170;7.538;2022-12-29T09:46:43;3.25;;;1.08;;
56419;SDS011;42323;52.170;7.538;2022-12-29T09:52:23;2.33;;;1.13;;
56419;SDS011;42323;52.170;7.538;2022-12-29T10:00:16;1.52;;;0.90;;
56419;SDS011;42323;52.170;7.538;2022-12-29T10:02:47;3.00;;;0.93;;
56419;SDS011;42323;52.170;7.538;2022-12-29T10:10:55;4.38;;;1.23;;
56419;SDS011;42323;52.170;7.538;2022-12-29T10:13:36;5.18;;;1.92;;
56419;SDS011;42323;52.170;7.538;2022-12-29T10:16:20;6.72;;;1.45;;
56419;SDS011;42323;52.170;7.538;2022-12-29T10:19:03;1.85;;;1.00;;
56419;SDS011;42323;52.170;7.538;2022-12-29T10:24:16;2.80;;;1.08;;
56419;SDS011;42323;52.170;7.538;2022-12-29T10:26:48;3.03;;;1.10;;
56419;SDS011;42323;52.170;7.538;2022-12-29T10:31:54;2.35;;;1.17;;
56419;SDS011;42323;52.170;7.538;2022-12-29T10:34:29;2.85;;;1.15;;
56419;SDS011;42323;52.170;7.538;2022-12-29T10:37:02;6.05;;;1.10;;
56419;SDS011;42323;52.170;7.538;2022-12-29T10:39:38;4.97;;;1.13;;
56419;SDS011;42323;52.170;7.538;2022-12-29T10:42:36;4.90;;;1.25;;
56419;SDS011;42323;52.170;7.538;2022-12-29T10:45:14;4.03;;;1.05;;
56419;SDS011;42323;52.170;7.538;2022-12-29T10:47:50;5.25;;;1.10;;
56419;SDS011;42323;52.170;7.538;2022-12-29T10:50:21;6.63;;;1.20;;
56419;SDS011;42323;52.170;7.538;2022-12-29T10:52:49;4.05;;;1.13;;
56419;SDS011;42323;52.170;7.538;2022-12-29T10:55:21;2.47;;;1.15;;
56419;SDS011;42323;52.170;7.538;2022-12-29T10:57:54;3.33;;;1.33;;
56419;SDS011;42323;52.170;7.538;2022-12-29T11:00:25;3.03;;;1.17;;
56419;SDS011;42323;52.170;7.538;2022-12-29T11:05:44;1.35;;;0.95;;
56419;SDS011;42323;52.170;7.538;2022-12-29T11:08:14;4.78;;;1.30;;
56419;SDS011;42323;52.170;7.538;2022-12-29T11:10:45;6.07;;;1.52;;
56419;SDS011;42323;52.170;7.538;2022-12-29T11:13:28;3.50;;;1.00;;
56419;SDS011;42323;52.170;7.538;2022-12-29T11:16:04;7.07;;;1.40;;
56419;SDS011;42323;52.170;7.538;2022-12-29T11:18:33;3.33;;;1.08;;
56419;SDS011;42323;52.170;7.538;2022-12-29T11:21:07;1.55;;;0.80;;
56419;SDS011;42323;52.170;7.538;2022-12-29T11:24:24;4.00;;;0.85;;
56419;SDS011;42323;52.170;7.538;2022-12-29T11:27:13;4.97;;;0.98;;
56419;SDS011;42323;52.170;7.538;2022-12-29T11:29:47;3.15;;;0.90;;
56419;SDS011;42323;52.170;7.538;2022-12-29T11:32:19;2.60;;;0.98;;
56419;SDS011;42323;52.170;7.538;2022-12-29T11:34:54;4.60;;;1.00;;
56419;SDS011;42323;52.170;7.538;2022-12-29T11:37:36;2.92;;;1.10;;
56419;SDS011;42323;52.170;7.538;2022-12-29T11:40:06;0.90;;;0.75;;
56419;SDS011;42323;52.170;7.538;2022-12-29T11:45:22;2.20;;;1.70;;
56419;SDS011;42323;52.170;7.538;2022-12-29T11:47:56;4.50;;;1.38;;
56419;SDS011;42323;52.170;7.538;2022-12-29T11:50:35;1.73;;;1.00;;
56419;SDS011;42323;52.170;7.538;2022-12-29T11:53:07;2.70;;;1.50;;
56419;SDS011;42323;52.170;7.538;2022-12-29T11:55:40;4.85;;;1.23;;
56419;SDS011;42323;52.170;7.538;2022-12-29T11:58:19;5.28;;;1.20;;
56419;SDS011;42323;52.170;7.538;2022-12-29T12:00:46;4.82;;;1.40;;
56419;SDS011;42323;52.170;7.538;2022-12-29T12:03:19;3.50;;;0.90;;
56419;SDS011;42323;52.170;7.538;2022-12-29T12:05:50;1.67;;;1.00;;
56419;SDS011;42323;52.170;7.538;2022-12-29T12:11:12;2.45;;;1.20;;
56419;SDS011;42323;52.170;7.538;2022-12-29T12:13:59;3.90;;;1.15;;
56419;SDS011;42323;52.170;7.538;2022-12-29T12:16:50;2.38;;;1.50;;
56419;SDS011;42323;52.170;7.538;2022-12-29T12:19:23;5.15;;;1.30;;
56419;SDS011;42323;52.170;7.538;2022-12-29T12:21:59;1.02;;;0.93;;
56419;SDS011;42323;52.170;7.538;2022-12-29T12:24:49;3.63;;;1.25;;
56419;SDS011;42323;52.170;7.538;2022-12-29T12:27:36;3.15;;;1.33;;
56419;SDS011;42323;52.170;7.538;2022-12-29T12:58:17;4.28;;;1.40;;
56419;SDS011;42323;52.170;7.538;2022-12-29T13:14:59;4.25;;;1.88;;
56419;SDS011;42323;52.170;7.538;2022-12-29T13:25:50;4.03;;;1.50;;
56419;SDS011;42323;52.170;7.538;2022-12-29T13:30:57;4.32;;;1.67;;
56419;SDS011;42323;52.170;7.538;2022-12-29T13:39:26;2.55;;;1.27;;
56419;SDS011;42323;52.170;7.538;2022-12-29T13:41:58;2.65;;;1.58;;
56419;SDS011;42323;52.170;7.538;2022-12-29T13:49:45;2.88;;;1.60;;
56419;SDS011;42323;52.170;7.538;2022-12-29T14:00:16;3.53;;;1.08;;
56419;SDS011;42323;52.170;7.538;2022-12-29T14:07:49;3.78;;;1.30;;
56419;SDS011;42323;52.170;7.538;2022-12-29T14:13:15;2.60;;;1.40;;
56419;SDS011;42323;52.170;7.538;2022-12-29T14:15:45;5.38;;;1.67;;
56419;SDS011;42323;52.170;7.538;2022-12-29T14:20:57;6.80;;;1.50;;
56419;SDS011;42323;52.170;7.538;2022-12-29T14:23:39;3.67;;;1.80;;
56419;SDS011;42323;52.170;7.538;2022-12-29T14:28:47;5.88;;;1.40;;
56419;SDS011;42323;52.170;7.538;2022-12-29T14:34:14;3.92;;;2.15;;
56419;SDS011;42323;52.170;7.538;2022-12-29T14:42:52;5.20;;;1.63;;
56419;SDS011;42323;52.170;7.538;2022-12-29T14:47:55;7.30;;;1.55;;
56419;SDS011;42323;52.170;7.538;2022-12-29T14:50:24;5.00;;;1.50;;
56419;SDS011;42323;52.170;7.538;2022-12-29T14:53:01;6.07;;;1.83;;
56419;SDS011;42323;52.170;7.538;2022-12-29T14:55:46;5.93;;;1.80;;
56419;SDS011;42323;52.170;7.538;2022-12-29T14:58:22;4.13;;;1.45;;
56419;SDS011;42323;52.170;7.538;2022-12-29T15:00:54;2.95;;;1.25;;
56419;SDS011;42323;52.170;7.538;2022-12-29T15:03:23;4.22;;;1.48;;
56419;SDS011;42323;52.170;7.538;2022-12-29T15:05:55;7.15;;;1.38;;
56419;SDS011;42323;52.170;7.538;2022-12-29T15:08:36;6.75;;;1.50;;
56419;SDS011;42323;52.170;7.538;2022-12-29T15:11:32;3.60;;;1.75;;
56419;SDS011;42323;52.170;7.538;2022-12-29T15:19:53;6.85;;;1.92;;
56419;SDS011;42323;52.170;7.538;2022-12-29T15:22:22;2.75;;;1.55;;
56419;SDS011;42323;52.170;7.538;2022-12-29T15:24:50;3.10;;;1.92;;
56419;SDS011;42323;52.170;7.538;2022-12-29T15:27:20;3.08;;;1.52;;
56419;SDS011;42323;52.170;7.538;2022-12-29T15:29:59;3.95;;;1.80;;
56419;SDS011;42323;52.170;7.538;2022-12-29T15:32:40;2.17;;;1.35;;
56419;SDS011;42323;52.170;7.538;2022-12-29T15:37:57;4.50;;;1.92;;
56419;SDS011;42323;52.170;7.538;2022-12-29T15:40:26;5.53;;;1.90;;
56419;SDS011;42323;52.170;7.538;2022-12-29T15:45:42;7.93;;;1.42;;
56419;SDS011;42323;52.170;7.538;2022-12-29T15:48:17;4.75;;;1.65;;
56419;SDS011;42323;52.170;7.538;2022-12-29T15:50:47;3.08;;;2.00;;
56419;SDS011;42323;52.170;7.538;2022-12-29T15:53:22;2.33;;;1.60;;
56419;SDS011;42323;52.170;7.538;2022-12-29T15:56:00;7.30;;;1.75;;
56419;SDS011;42323;52.170;7.538;2022-12-29T15:58:39;7.18;;;2.08;;
56419;SDS011;42323;52.170;7.538;2022-12-29T16:04:02;5.97;;;2.63;;
56419;SDS011;42323;52.170;7.538;2022-12-29T16:09:28;6.35;;;2.08;;
56419;SDS011;42323;52.170;7.538;2022-12-29T16:12:05;2.42;;;1.65;;
56419;SDS011;42323;52.170;7.538;2022-12-29T16:14:43;5.65;;;1.90;;
56419;SDS011;42323;52.170;7.538;2022-12-29T16:17:13;5.28;;;1.75;;
56419;SDS011;42323;52.170;7.538;2022-12-29T16:19:49;3.42;;;1.42;;
56419;SDS011;42323;52.170;7.538;2022-12-29T16:24:55;3.33;;;1.90;;
56419;SDS011;42323;52.170;7.538;2022-12-29T16:27:37;4.53;;;1.90;;
56419;SDS011;42323;52.170;7.538;2022-12-29T16:30:12;4.80;;;1.65;;
56419;SDS011;42323;52.170;7.538;2022-12-29T16:32:46;6.28;;;1.90;;
56419;SDS011;42323;52.170;7.538;2022-12-29T16:35:18;3.58;;;1.90;;
56419;SDS011;42323;52.170;7.538;2022-12-29T16:37:47;3.30;;;2.10;;
56419;SDS011;42323;52.170;7.538;2022-12-29T16:42:48;6.85;;;2.28;;
56419;SDS011;42323;52.170;7.538;2022-12-29T16:48:27;5.20;;;2.30;;
56419;SDS011;42323;52.170;7.538;2022-12-29T16:50:43;7.68;;;2.58;;
56419;SDS011;42323;52.170;7.538;2022-12-29T16:55:52;4.18;;;2.13;;
56419;SDS011;42323;52.170;7.538;2022-12-29T16:58:21;4.55;;;1.88;;
56419;SDS011;42323;52.170;7.538;2022-12-29T17:00:51;2.50;;;2.20;;
56419;SDS011;42323;52.170;7.538;2022-12-29T17:03:32;7.85;;;1.92;;
56419;SDS011;42323;52.170;7.538;2022-12-29T17:06:04;4.97;;;2.05;;
56419;SDS011;42323;52.170;7.538;2022-12-29T17:08:39;3.15;;;1.50;;
56419;SDS011;42323;52.170;7.538;2022-12-29T17:11:13;3.75;;;1.95;;
56419;SDS011;42323;52.170;7.538;2022-12-29T17:14:12;3.50;;;1.50;;
56419;SDS011;42323;52.170;7.538;2022-12-29T17:16:49;4.13;;;1.80;;
56419;SDS011;42323;52.170;7.538;2022-12-29T17:19:17;5.97;;;2.10;;
56419;SDS011;42323;52.170;7.538;2022-12-29T17:21:45;5.70;;;1.90;;
56419;SDS011;42323;52.170;7.538;2022-12-29T17:24:18;3.03;;;1.83;;
56419;SDS011;42323;52.170;7.538;2022-12-29T17:26:47;3.15;;;1.70;;
56419;SDS011;42323;52.170;7.538;2022-12-29T17:29:21;3.92;;;1.85;;
56419;SDS011;42323;52.170;7.538;2022-12-29T17:31:59;7.55;;;1.90;;
56419;SDS011;42323;52.170;7.538;2022-12-29T17:34:28;5.75;;;1.98;;
56419;SDS011;42323;52.170;7.538;2022-12-29T17:36:54;3.38;;;1.95;;
56419;SDS011;42323;52.170;7.538;2022-12-29T17:39:21;3.17;;;1.63;;
56419;SDS011;42323;52.170;7.538;2022-12-29T17:52:31;5.35;;;1.55;;
56419;SDS011;42323;52.170;7.538;2022-12-29T17:54:58;3.80;;;1.85;;
56419;SDS011;42323;52.170;7.538;2022-12-29T17:57:26;5.50;;;2.00;;
56419;SDS011;42323;52.170;7.538;2022-12-29T17:59:53;2.15;;;1.50;;
56419;SDS011;42323;52.170;7.538;2022-12-29T18:04:49;2.17;;;1.13;;
56419;SDS011;42323;52.170;7.538;2022-12-29T18:07:16;5.82;;;1.33;;
56419;SDS011;42323;52.170;7.538;2022-12-29T18:09:43;5.15;;;1.52;;
56419;SDS011;42323;52.170;7.538;2022-12-29T18:14:55;2.60;;;1.27;;
56419;SDS011;42323;52.170;7.538;2022-12-29T18:17:23;6.53;;;1.80;;
56419;SDS011;42323;52.170;7.538;2022-12-29T18:19:50;4.38;;;1.60;;
56419;SDS011;42323;52.170;7.538;2022-12-29T18:22:20;3.65;;;1.70;;
56419;SDS011;42323;52.170;7.538;2022-12-29T18:24:51;3.17;;;1.40;;
56419;SDS011;42323;52.170;7.538;2022-12-29T18:27:22;4.03;;;1.58;;
56419;SDS011;42323;52.170;7.538;2022-12-29T18:29:49;1.42;;;1.13;;
56419;SDS011;42323;52.170;7.538;2022-12-29T18:32:16;2.33;;;1.45;;
56419;SDS011;42323;52.170;7.538;2022-12-29T18:34:43;1.55;;;1.42;;
56419;SDS011;42323;52.170;7.538;2022-12-29T18:37:10;2.45;;;1.42;;